Time;durP1;ratioP1;P1;durP2;ratioP2;P2;SDS_P1;SDS_P2;PMS_P1;PMS_P2;Temp;Humidity;BMP_temperature;BMP_pressure;BME280_temperature;BME280_humidity;BME280_pressure;Samples;Min_cycle;Max_cycle;Signal;HPM_P1;HPM_P2
2023/07/03 00:01:07;;;;;;;19.67;9.68;;;;;;;18.49;100.00;97116.34;5052119;28;20090;-73
2023/07/03 00:03:33;;;;;;;24.65;9.77;;;;;;;18.43;100.00;97106.09;5070408;28;20020;-73
2023/07/03 00:06:00;;;;;;;15.98;9.38;;;;;;;18.41;100.00;97108.97;5035685;28;20035;-73
2023/07/03 00:08:26;;;;;;;19.33;10.43;;;;;;;18.39;100.00;97119.09;5052644;28;20029;-73
2023/07/03 00:10:59;;;;;;;21.17;9.27;;;;;;;18.38;100.00;97113.84;5052367;28;20090;-73
2023/07/03 00:13:25;;;;;;;16.88;9.60;;;;;;;18.37;100.00;97117.53;5052476;28;20023;-73
2023/07/03 00:15:50;;;;;;;18.30;9.25;;;;;;;18.33;100.00;97121.59;5052407;28;20021;-73
2023/07/03 00:18:16;;;;;;;21.45;9.68;;;;;;;18.38;100.00;97124.69;5052329;28;20047;-72
2023/07/03 00:20:41;;;;;;;19.85;9.30;;;;;;;18.33;100.00;97121.59;5035904;28;20040;-72
2023/07/03 00:23:07;;;;;;;23.25;9.65;;;;;;;18.27;100.00;97117.63;5052183;28;20055;-74
2023/07/03 00:25:32;;;;;;;20.45;9.57;;;;;;;18.32;100.00;97125.28;5070251;28;20093;-73
2023/07/03 00:27:58;;;;;;;17.52;9.38;;;;;;;18.25;100.00;97125.03;5052349;28;20051;-73
2023/07/03 00:30:23;;;;;;;18.83;9.43;;;;;;;18.26;100.00;97129.47;5070260;28;20036;-73
2023/07/03 00:32:49;;;;;;;22.95;10.57;;;;;;;18.30;100.00;97132.72;5034765;28;20032;-73
2023/07/03 00:35:14;;;;;;;17.65;8.95;;;;;;;18.22;100.00;97129.91;5019222;28;20035;-74
2023/07/03 00:37:40;;;;;;;17.52;8.45;;;;;;;18.21;100.00;97126.34;5053894;28;20443;-74
2023/07/03 00:40:24;;;;;;;15.65;9.45;;;;;;;18.20;100.00;97126.50;5035983;28;20044;-73
2023/07/03 00:42:52;;;;;;;23.45;9.23;;;;;;;18.17;100.00;97132.22;5044982;28;20021;-74
2023/07/03 00:45:18;;;;;;;19.55;9.30;;;;;;;18.17;100.00;97121.41;5015885;28;20033;-73
2023/07/03 00:47:44;;;;;;;21.13;8.90;;;;;;;18.16;100.00;97125.09;5033828;28;20104;-73
2023/07/03 00:50:10;;;;;;;19.50;9.85;;;;;;;18.15;100.00;97129.66;4999535;28;20454;-73
2023/07/03 00:52:37;;;;;;;17.83;8.25;;;;;;;18.12;100.00;97132.69;5030496;28;20120;-73
2023/07/03 00:55:03;;;;;;;18.98;9.75;;;;;;;17.98;100.00;97121.50;5019109;28;20029;-73
2023/07/03 00:57:28;;;;;;;16.15;8.98;;;;;;;17.98;100.00;97121.50;5035295;28;20033;-73
2023/07/03 00:59:54;;;;;;;15.77;9.27;;;;;;;17.99;100.00;97124.09;5053547;28;20025;-74
2023/07/03 01:02:39;;;;;;;16.92;8.88;;;;;;;17.94;100.00;97122.81;5050490;28;20029;-73
2023/07/03 01:05:17;;;;;;;27.13;10.13;;;;;;;17.87;100.00;97123.41;5035537;28;20021;-73
2023/07/03 01:07:43;;;;;;;15.70;8.70;;;;;;;17.88;100.00;97127.84;5035753;28;20115;-73
2023/07/03 01:10:15;;;;;;;16.25;8.88;;;;;;;17.90;100.00;97126.84;5035522;28;20029;-74
2023/07/03 01:12:44;;;;;;;15.32;9.20;;;;;;;17.86;100.00;97135.25;5021024;28;20018;-73
2023/07/03 01:15:13;;;;;;;16.70;9.07;;;;;;;17.93;100.00;97137.38;5015735;28;20112;-73
2023/07/03 01:17:40;;;;;;;15.77;9.20;;;;;;;17.98;100.00;97143.16;4998313;28;20025;-73
2023/07/03 01:20:09;;;;;;;20.67;9.88;;;;;;;17.96;100.00;97147.88;5015627;28;20163;-73
2023/07/03 01:22:42;;;;;;;15.80;9.05;;;;;;;18.00;100.00;97152.84;5015320;28;20032;-73
2023/07/03 01:25:10;;;;;;;20.27;9.20;;;;;;;18.06;100.00;97148.66;5015464;28;20040;-73
2023/07/03 01:27:39;;;;;;;18.85;9.05;;;;;;;18.10;100.00;97153.63;5015235;28;20025;-73
2023/07/03 01:30:06;;;;;;;18.30;8.07;;;;;;;18.16;100.00;97157.59;4998902;28;20033;-73
2023/07/03 01:32:33;;;;;;;18.00;9.00;;;;;;;18.15;100.00;97154.03;5015058;28;20032;-73
2023/07/03 01:35:00;;;;;;;18.27;8.75;;;;;;;18.13;100.00;97152.47;5050127;28;20098;-73
2023/07/03 01:37:27;;;;;;;15.20;8.30;;;;;;;18.08;100.00;97152.94;5054674;28;20564;-74
2023/07/03 01:39:53;;;;;;;20.13;8.55;;;;;;;18.07;100.00;97153.94;5054963;28;20403;-73
2023/07/03 01:42:21;;;;;;;13.63;8.18;;;;;;;17.96;100.00;97146.03;5054740;28;20025;-73
2023/07/03 01:44:47;;;;;;;15.88;8.00;;;;;;;17.82;100.00;97147.38;5054434;28;20098;-73
2023/07/03 01:47:14;;;;;;;16.02;7.82;;;;;;;17.86;100.00;97156.91;5072585;28;20035;-73
2023/07/03 01:49:40;;;;;;;14.15;7.57;;;;;;;17.79;100.00;97150.38;5054158;28;20021;-73
2023/07/03 01:52:14;;;;;;;16.20;8.13;;;;;;;17.81;100.00;97159.19;5054813;28;20016;-73
2023/07/03 01:54:55;;;;;;;15.90;7.90;;;;;;;17.80;100.00;97162.06;5054294;28;20066;-73
2023/07/03 01:57:44;;;;;;;16.30;7.93;;;;;;;17.75;100.00;97156.22;5037764;28;20036;-73
2023/07/03 02:00:14;;;;;;;18.75;8.63;;;;;;;17.69;100.00;97149.56;5071336;28;20040;-74
2023/07/03 02:02:43;;;;;;;17.20;8.50;;;;;;;17.63;100.00;97146.59;5054345;28;20029;-74
2023/07/03 02:05:13;;;;;;;17.75;8.30;;;;;;;17.61;100.00;97149.47;5054483;28;20438;-74
2023/07/03 02:07:40;;;;;;;16.92;9.02;;;;;;;17.59;100.00;97156.88;5054213;28;20484;-74
2023/07/03 02:10:06;;;;;;;22.20;9.75;;;;;;;17.59;100.00;97165.00;5054434;28;20103;-74
2023/07/03 02:12:31;;;;;;;25.30;10.02;;;;;;;17.63;100.00;97165.53;5071749;28;20569;-75
2023/07/03 02:15:04;;;;;;;24.48;10.02;;;;;;;17.68;100.00;97168.66;5053889;28;20031;-76
2023/07/03 02:17:30;;;;;;;22.48;10.25;;;;;;;17.70;100.00;97166.66;5054614;28;20036;-76
2023/07/03 02:19:56;;;;;;;32.13;9.32;;;;;;;17.77;100.00;97160.50;5054022;28;20032;-74
2023/07/03 02:22:21;;;;;;;26.65;10.70;;;;;;;17.81;100.00;97161.91;5054087;28;20029;-74
2023/07/03 02:24:47;;;;;;;33.00;11.27;;;;;;;17.91;100.00;97166.41;5053574;28;20017;-73
2023/07/03 02:27:12;;;;;;;28.05;10.88;;;;;;;17.96;100.00;97162.28;5053886;28;20035;-73
2023/07/03 02:29:38;;;;;;;27.17;10.68;;;;;;;17.98;100.00;97160.25;5053775;28;20082;-73
2023/07/03 02:32:12;;;;;;;17.70;9.90;;;;;;;17.97;100.00;97168.50;5053769;28;20021;-74
2023/07/03 02:34:37;;;;;;;27.98;10.75;;;;;;;17.99;100.00;97174.66;5054485;28;20045;-73
2023/07/03 02:37:04;;;;;;;25.63;10.85;;;;;;;17.93;100.00;97177.97;5036717;28;20037;-73
2023/07/03 02:39:31;;;;;;;25.88;10.15;;;;;;;17.91;100.00;97175.38;5053944;28;20440;-73
2023/07/03 02:41:56;;;;;;;56.78;10.32;;;;;;;17.93;100.00;97177.97;5036639;28;20035;-73
2023/07/03 02:44:22;;;;;;;21.98;11.00;;;;;;;17.93;100.00;97178.81;5053605;28;20029;-73
2023/07/03 02:46:47;;;;;;;26.98;10.32;;;;;;;17.96;100.00;97188.47;5053235;28;20094;-73
2023/07/03 02:49:13;;;;;;;22.50;10.50;;;;;;;17.97;100.00;97190.16;5071443;28;20024;-74
2023/07/03 02:51:39;;;;;;;19.20;9.93;;;;;;;18.00;100.00;97185.31;5036654;28;20024;-74
2023/07/03 02:54:05;;;;;;;20.42;9.35;;;;;;;17.94;100.00;97193.16;5053266;28;20071;-73
2023/07/03 02:56:30;;;;;;;14.10;8.73;;;;;;;17.93;100.00;97202.31;5035736;28;20043;-73
2023/07/03 02:58:56;;;;;;;18.42;9.52;;;;;;;17.74;100.00;97187.00;5070997;28;20551;-73
2023/07/03 03:01:22;;;;;;;65.50;10.27;;;;;;;17.63;100.00;97196.13;5053134;28;20024;-73
2023/07/03 03:03:47;;;;;;;32.33;10.02;;;;;;;17.63;100.00;97204.25;5053000;28;20116;-74
2023/07/03 03:06:13;;;;;;;31.30;10.23;;;;;;;17.69;100.00;97205.50;5052981;28;20488;-73
2023/07/03 03:08:38;;;;;;;30.85;10.25;;;;;;;17.71;100.00;97211.66;5053168;28;20466;-73
2023/07/03 03:11:04;;;;;;;25.15;9.95;;;;;;;17.74;100.00;97206.81;5070647;28;20093;-74
2023/07/03 03:13:30;;;;;;;17.08;9.40;;;;;;;17.83;100.00;97205.91;5053160;28;20163;-74
2023/07/03 03:15:55;;;;;;;19.13;9.45;;;;;;;17.87;100.00;97207.28;5052824;28;20028;-73
2023/07/03 03:18:21;;;;;;;24.38;9.57;;;;;;;17.93;100.00;97210.44;5036346;28;20032;-74
2023/07/03 03:20:47;;;;;;;17.00;9.50;;;;;;;17.99;100.00;97204.41;5052801;28;20036;-73
2023/07/03 03:23:13;;;;;;;21.45;10.25;;;;;;;18.03;100.00;97212.06;5052768;28;20028;-75
2023/07/03 03:25:39;;;;;;;23.70;8.30;;;;;;;18.04;100.00;97213.78;5052942;28;20028;-72
2023/07/03 03:28:05;;;;;;;22.38;9.32;;;;;;;18.03;100.00;97212.06;5052787;28;20401;-73
2023/07/03 03:30:31;;;;;;;31.23;9.85;;;;;;;18.15;100.00;97215.47;5036379;28;20548;-74
2023/07/03 03:32:57;;;;;;;20.83;10.52;;;;;;;18.24;100.00;97214.56;5050492;28;20036;-74
2023/07/03 03:35:22;;;;;;;18.67;9.32;;;;;;;18.28;100.00;97202.41;5046353;28;20499;-74
2023/07/03 03:37:48;;;;;;;26.70;9.18;;;;;;;18.33;100.00;97202.84;5070476;28;20024;-74
2023/07/03 03:40:14;;;;;;;36.50;9.02;;;;;;;18.36;100.00;97202.53;5070437;28;20097;-73
2023/07/03 03:42:39;;;;;;;19.00;9.48;;;;;;;18.34;100.00;97204.50;5070728;28;20531;-74
2023/07/03 03:45:05;;;;;;;26.27;9.70;;;;;;;18.31;100.00;97205.66;5035896;28;20087;-74
2023/07/03 03:47:31;;;;;;;18.70;9.95;;;;;;;18.31;100.00;97213.78;5052801;28;20020;-74
2023/07/03 03:49:57;;;;;;;18.65;10.38;;;;;;;18.26;100.00;97213.41;5052487;28;20051;-74
2023/07/03 03:52:22;;;;;;;17.55;9.50;;;;;;;18.35;100.00;97212.50;5052575;28;20016;-72
2023/07/03 03:54:48;;;;;;;20.77;9.55;;;;;;;18.43;100.00;97212.59;5052812;28;20031;-73
2023/07/03 03:57:14;;;;;;;14.77;8.80;;;;;;;18.51;100.00;97214.59;5052412;28;20097;-73
2023/07/03 03:59:40;;;;;;;16.17;9.73;;;;;;;18.62;100.00;97205.38;5035875;28;20056;-75
2023/07/03 04:02:05;;;;;;;27.88;8.75;;;;;;;18.75;100.00;97212.13;5052321;28;20675;-72
2023/07/03 04:04:31;;;;;;;21.23;9.52;;;;;;;18.71;100.00;97202.59;5052609;28;20103;-74
2023/07/03 04:06:57;;;;;;;39.53;10.00;;;;;;;18.62;100.00;97198.09;5070943;28;20035;-74
2023/07/03 04:09:22;;;;;;;42.55;11.77;;;;;;;18.66;100.00;97215.75;5056638;28;20420;-74
2023/07/03 04:11:48;;;;;;;19.30;10.02;;;;;;;18.71;100.00;97218.84;5056446;28;20028;-73
2023/07/03 04:14:15;;;;;;;19.98;9.65;;;;;;;18.72;100.00;97215.16;5056309;28;20032;-73
2023/07/03 04:16:40;;;;;;;45.72;10.52;;;;;;;18.77;100.00;97207.41;5056717;28;20017;-74
2023/07/03 04:19:06;;;;;;;28.20;11.40;;;;;;;18.73;100.00;97216.88;5056243;28;20105;-74
2023/07/03 04:21:32;;;;;;;11.45;7.28;;;;;;;18.78;100.00;97208.25;5074146;28;20020;-73
2023/07/03 04:23:57;;;;;;;13.88;8.00;;;;;;;18.94;100.00;97217.41;5055996;28;20062;-73
2023/07/03 04:26:23;;;;;;;17.38;10.48;;;;;;;18.98;100.00;97217.09;5056225;28;20089;-72
2023/07/03 04:28:49;;;;;;;23.63;10.45;;;;;;;18.94;100.00;97212.00;5074195;28;20035;-72
2023/07/03 04:31:14;;;;;;;20.67;8.80;;;;;;;18.91;100.00;97216.88;5055925;28;20024;-74
2023/07/03 04:33:42;;;;;;;13.98;8.65;;;;;;;19.09;100.00;97222.28;5039250;28;20043;-73
2023/07/03 04:36:11;;;;;;;17.25;9.35;;;;;;;19.05;100.00;97218.16;5039486;28;20059;-74
2023/07/03 04:38:39;;;;;;;18.75;10.00;;;;;;;19.05;100.00;97212.75;5043236;28;20029;-74
2023/07/03 04:41:04;;;;;;;21.10;10.55;;;;;;;19.09;100.00;97211.44;5056014;28;20103;-74
2023/07/03 04:43:31;;;;;;;22.65;9.60;;;;;;;19.28;100.00;97216.69;5055956;28;20229;-75
2023/07/03 04:46:02;;;;;;;26.77;11.68;;;;;;;19.47;100.00;97213.81;5056094;28;20020;-75
2023/07/03 04:48:28;;;;;;;19.58;7.78;;;;;;;19.42;100.00;97208.88;5039769;28;20515;-74
2023/07/03 04:50:54;;;;;;;14.15;8.38;;;;;;;19.33;100.00;97219.78;5055600;28;20032;-74
2023/07/03 04:53:20;;;;;;;25.90;10.15;;;;;;;19.28;100.00;97222.13;5038766;28;20032;-75
2023/07/03 04:55:46;;;;;;;35.20;18.13;;;;;;;19.40;100.00;97226.31;5073473;28;20061;-75
2023/07/03 04:58:14;;;;;;;15.77;8.95;;;;;;;19.55;100.00;97218.44;5055342;28;20056;-75
2023/07/03 05:00:40;;;;;;;15.93;9.57;;;;;;;19.68;100.00;97225.19;5073425;28;20051;-75
2023/07/03 05:03:05;;;;;;;14.93;8.30;;;;;;;19.84;100.00;97221.72;5055219;28;20473;-76
2023/07/03 05:05:31;;;;;;;17.08;8.48;;;;;;;20.11;100.00;97216.09;5035127;28;20488;-72
2023/07/03 05:07:57;;;;;;;48.92;30.20;;;;;;;20.11;100.00;97220.66;5065619;28;20021;-72
2023/07/03 05:10:22;;;;;;;32.42;21.02;;;;;;;19.91;100.00;97217.31;5052121;28;20056;-71
2023/07/03 05:12:49;;;;;;;22.83;13.50;;;;;;;20.01;100.00;97220.78;5052327;28;20074;-72
2023/07/03 05:15:16;;;;;;;13.75;8.70;;;;;;;20.19;100.00;97223.41;5052464;28;20108;-72
2023/07/03 05:17:41;;;;;;;13.68;9.25;;;;;;;20.54;100.00;97218.69;5052205;28;20107;-72
2023/07/03 05:20:10;;;;;;;17.67;9.25;;;;;;;21.02;100.00;97223.38;5051613;28;20130;-72
2023/07/03 05:22:40;;;;;;;26.70;11.50;;;;;;;21.51;100.00;97202.50;5051125;28;20451;-73
2023/07/03 05:25:08;;;;;;;16.15;8.18;;;;;;;21.85;100.00;97205.00;5054739;28;20031;-71
2023/07/03 05:27:34;;;;;;;12.88;8.50;;;;;;;21.76;100.00;97203.34;5072812;28;20123;-72
2023/07/03 05:30:00;;;;;;;17.38;9.05;;;;;;;21.60;100.00;97200.63;5055162;28;20103;-72
2023/07/03 05:32:25;;;;;;;16.65;8.60;;;;;;;21.52;100.00;97197.91;5054828;28;20126;-72
2023/07/03 05:34:51;;;;;;;25.83;16.52;;;;;;;21.68;100.00;97202.50;5037991;28;20054;-72
2023/07/03 05:37:17;;;;;;;15.77;9.27;;;;;;;21.80;100.00;97206.56;5037964;28;20435;-72
2023/07/03 05:39:46;;;;;;;22.38;8.45;;;;;;;22.31;100.00;97210.69;5054976;28;20023;-72
2023/07/03 05:42:12;;;;;;;16.90;10.60;;;;;;;22.64;100.00;97207.66;5072491;28;20542;-73
2023/07/03 05:44:37;;;;;;;27.15;14.82;;;;;;;23.06;100.00;97200.97;5054518;28;20033;-72
2023/07/03 05:47:03;;;;;;;22.05;11.68;;;;;;;22.89;100.00;97200.22;5072452;28;20024;-72
2023/07/03 05:49:28;;;;;;;14.65;8.88;;;;;;;22.83;100.00;97211.84;5072103;28;20480;-72
2023/07/03 05:51:54;;;;;;;16.80;9.27;;;;;;;23.66;100.00;97201.00;5054571;28;20012;-72
2023/07/03 05:54:21;;;;;;;18.70;10.48;;;;;;;24.63;100.00;97194.47;5037691;28;20032;-73
2023/07/03 05:57:09;;;;;;;16.13;9.05;;;;;;;25.86;100.00;97193.28;5054949;28;20120;-73
2023/07/03 05:59:35;;;;;;;17.63;9.18;;;;;;;27.23;100.00;97176.69;5054485;28;20103;-73
2023/07/03 06:02:04;;;;;;;42.25;21.27;;;;;;;28.28;100.00;97184.13;5054291;28;20043;-73
2023/07/03 06:04:29;;;;;;;22.20;12.10;;;;;;;29.17;100.00;97176.81;5054128;28;20063;-73
2023/07/03 06:06:56;;;;;;;23.27;10.18;;;;;;;29.87;100.00;97174.91;5072143;28;20024;-73
2023/07/03 06:09:22;;;;;;;18.63;9.18;;;;;;;30.58;95.16;97181.63;5054106;28;20047;-74
2023/07/03 06:11:48;;;;;;;21.42;10.20;;;;;;;31.19;88.45;97180.69;5072165;28;20400;-73
2023/07/03 06:14:16;;;;;;;22.55;9.10;;;;;;;31.28;85.54;97167.38;5054070;28;20090;-73
2023/07/03 06:16:46;;;;;;;25.75;11.60;;;;;;;31.32;85.84;97172.19;5051561;28;20084;-72
2023/07/03 06:19:12;;;;;;;17.42;10.50;;;;;;;30.63;89.76;97180.94;5051491;28;20455;-73
2023/07/03 06:21:38;;;;;;;20.75;11.45;;;;;;;30.48;92.62;97184.09;5053795;28;20028;-72
2023/07/03 06:24:05;;;;;;;15.30;7.68;;;;;;;30.80;88.91;97182.00;5053926;28;20028;-72
2023/07/03 06:26:31;;;;;;;16.05;9.30;;;;;;;31.90;84.42;97175.13;5036913;28;20028;-73
2023/07/03 06:28:56;;;;;;;14.00;7.70;;;;;;;32.46;80.06;97177.34;5036788;28;20029;-73
2023/07/03 06:31:22;;;;;;;14.13;8.57;;;;;;;32.24;80.06;97176.25;5052883;28;20039;-72
2023/07/03 06:33:48;;;;;;;16.88;9.45;;;;;;;32.01;82.31;97187.31;5053644;28;20040;-73
2023/07/03 06:36:20;;;;;;;20.27;8.60;;;;;;;32.19;81.82;97190.00;5053725;28;20035;-73
2023/07/03 06:38:52;;;;;;;24.70;9.02;;;;;;;33.03;76.36;97189.47;5054991;28;20035;-72
2023/07/03 06:41:17;;;;;;;;;;;;;;;32.58;77.58;97185.66;5071770;28;20381;-73
2023/07/03 06:43:43;;;;;;;23.88;8.68;;;;;;;32.33;79.51;97188.69;5053380;28;19974;-73
2023/07/03 06:46:10;;;;;;;16.77;8.35;;;;;;;33.01;74.48;97188.03;5053257;28;20039;-73
2023/07/03 06:48:36;;;;;;;13.70;8.50;;;;;;;33.57;71.69;97179.72;5071500;28;20036;-74
2023/07/03 06:51:06;;;;;;;17.33;9.18;;;;;;;33.62;67.95;97177.09;5071020;28;20033;-73
2023/07/03 06:53:32;;;;;;;13.50;8.55;;;;;;;32.32;75.80;97187.00;5071541;28;20070;-74
2023/07/03 06:55:58;;;;;;;17.88;10.93;;;;;;;32.76;74.30;97188.31;5071344;28;20032;-74
2023/07/03 06:58:25;;;;;;;14.20;8.93;;;;;;;32.81;74.89;97180.09;5053257;28;20510;-74
2023/07/03 07:00:50;;;;;;;19.15;10.00;;;;;;;33.57;68.99;97181.66;5053234;28;20032;-74
2023/07/03 07:03:16;;;;;;;15.25;8.43;;;;;;;34.04;65.57;97169.19;5052927;28;20020;-73
2023/07/03 07:05:41;;;;;;;13.63;9.05;;;;;;;32.73;71.22;97177.72;5053342;28;20099;-73
2023/07/03 07:08:07;;;;;;;23.23;8.60;;;;;;;31.65;80.28;97188.34;5070725;28;20043;-73
2023/07/03 07:10:38;;;;;;;15.35;8.80;;;;;;;32.53;77.22;97175.31;5036116;28;20032;-72
2023/07/03 07:13:03;;;;;;;15.85;9.75;;;;;;;33.40;69.82;97178.00;5047091;28;20028;-73
2023/07/03 07:15:29;;;;;;;15.73;9.00;;;;;;;33.96;65.91;97177.13;5070513;28;20021;-72
2023/07/03 07:17:54;;;;;;;14.27;8.93;;;;;;;34.71;60.05;97181.13;5052792;28;20024;-74
2023/07/03 07:20:22;;;;;;;11.70;8.60;;;;;;;34.88;59.40;97163.56;5070587;28;20031;-74
2023/07/03 07:22:48;;;;;;;17.60;10.30;;;;;;;35.69;56.71;97166.19;5052885;28;20028;-73
2023/07/03 07:25:14;;;;;;;14.35;9.38;;;;;;;36.20;52.54;97169.47;5035651;28;20452;-74
2023/07/03 07:27:39;;;;;;;12.10;8.43;;;;;;;37.06;49.53;97164.47;5070491;28;20024;-74
2023/07/03 07:30:05;;;;;;;11.38;7.75;;;;;;;37.53;47.24;97162.44;5052349;28;20538;-73
2023/07/03 07:32:31;;;;;;;21.60;10.13;;;;;;;37.89;46.75;97161.38;5070291;28;20106;-74
2023/07/03 07:34:56;;;;;;;11.65;8.85;;;;;;;37.76;45.25;97158.25;5017552;28;20088;-74
2023/07/03 07:37:22;;;;;;;12.18;7.90;;;;;;;37.34;45.79;97161.22;5015838;28;20404;-74
2023/07/03 07:39:47;;;;;;;12.00;8.57;;;;;;;37.93;43.37;97153.31;5050142;28;20025;-73
2023/07/03 07:42:14;;;;;;;11.00;8.25;;;;;;;38.40;41.85;97153.00;5049867;28;20029;-74
2023/07/03 07:44:39;;;;;;;11.35;8.57;;;;;;;38.93;39.60;97140.31;5015909;28;20102;-73
2023/07/03 07:47:06;;;;;;;12.65;9.02;;;;;;;39.14;39.26;97163.44;5032372;28;20033;-74
2023/07/03 07:49:31;;;;;;;10.40;7.95;;;;;;;39.06;38.14;97153.69;5032244;28;20091;-73
2023/07/03 07:51:57;;;;;;;8.65;7.18;;;;;;;37.66;37.83;97142.31;5032497;28;20485;-73
2023/07/03 07:54:23;;;;;;;11.18;9.25;;;;;;;37.42;40.23;97153.16;5049946;28;20390;-73
2023/07/03 07:56:48;;;;;;;12.40;9.25;;;;;;;36.73;42.69;97158.13;5015928;28;20035;-73
2023/07/03 07:59:14;;;;;;;14.52;8.63;;;;;;;36.79;42.20;97159.84;5032653;28;20040;-73
2023/07/03 08:01:39;;;;;;;15.85;8.77;;;;;;;37.83;41.15;97159.69;5032250;28;20842;-74
2023/07/03 08:04:05;;;;;;;15.20;8.40;;;;;;;38.83;38.45;97163.56;5015804;28;20091;-74
2023/07/03 08:06:30;;;;;;;13.02;7.68;;;;;;;39.27;37.41;97162.88;5032735;28;20060;-74
2023/07/03 08:08:56;;;;;;;25.23;11.45;;;;;;;38.57;38.46;97161.09;5032230;28;20066;-74
2023/07/03 08:11:21;;;;;;;14.82;9.02;;;;;;;38.96;37.80;97156.53;5050229;28;20393;-74
2023/07/03 08:13:47;;;;;;;19.40;7.50;;;;;;;38.36;38.80;97165.88;5032449;28;20021;-74
2023/07/03 08:16:15;;;;;;;12.13;7.55;;;;;;;38.78;37.75;97155.16;5050159;28;20445;-73
2023/07/03 08:18:41;;;;;;;11.80;8.68;;;;;;;38.55;36.84;97158.56;5050027;28;20051;-72
2023/07/03 08:21:08;;;;;;;21.77;7.68;;;;;;;38.16;37.58;97157.47;5015627;28;20033;-73
2023/07/03 08:23:33;;;;;;;7.90;6.78;;;;;;;38.29;37.35;97157.75;5049831;28;20491;-74
2023/07/03 08:26:00;;;;;;;30.08;8.40;;;;;;;37.48;39.14;97170.78;5032109;28;20032;-74
2023/07/03 08:28:25;;;;;;;47.83;8.15;;;;;;;37.52;39.06;97165.47;5015805;28;20029;-73
2023/07/03 08:30:51;;;;;;;10.48;6.82;;;;;;;37.65;38.17;97173.34;5032142;28;20078;-74
2023/07/03 08:33:16;;;;;;;11.68;6.82;;;;;;;39.36;36.68;97164.78;5032153;28;20106;-73
2023/07/03 08:35:42;;;;;;;11.38;6.93;;;;;;;40.51;34.80;97153.03;5015972;28;20045;-74
2023/07/03 08:38:10;;;;;;;12.85;8.05;;;;;;;40.49;34.28;97158.09;5029939;28;20034;-73
2023/07/03 08:40:36;;;;;;;9.85;6.78;;;;;;;40.13;34.80;97159.53;5027760;28;20118;-74
2023/07/03 08:43:02;;;;;;;9.90;7.13;;;;;;;40.28;34.18;97154.66;5031970;28;20092;-74
2023/07/03 08:45:39;;;;;;;9.90;7.07;;;;;;;40.17;34.27;97155.03;5032034;28;20025;-74
2023/07/03 08:48:14;;;;;;;7.57;6.18;;;;;;;39.65;35.09;97159.31;5015422;28;20036;-74
2023/07/03 08:50:45;;;;;;;13.07;7.07;;;;;;;40.45;34.07;97151.41;5031870;28;20020;-74
2023/07/03 08:53:12;;;;;;;14.07;7.25;;;;;;;40.87;34.11;97157.16;5032213;28;20481;-74
2023/07/03 08:56:01;;;;;;;14.60;7.63;;;;;;;40.84;33.49;97152.13;5052888;28;20033;-77
2023/07/03 08:58:27;;;;;;;8.05;6.65;;;;;;;40.61;33.61;97150.13;5015333;28;20108;-73
2023/07/03 09:00:57;;;;;;;8.80;7.18;;;;;;;41.65;32.53;97139.91;5033319;28;20469;-74
2023/07/03 09:03:31;;;;;;;8.68;7.05;;;;;;;42.72;31.49;97144.63;5033265;28;20041;-74
2023/07/03 09:06:34;;;;;;;9.48;7.53;;;;;;;43.12;31.02;97152.28;5033191;28;20550;-75
2023/07/03 09:09:25;;;;;;;9.73;6.70;;;;;;;43.62;29.38;97145.56;4994599;28;20072;-74
2023/07/03 09:12:03;;;;;;;14.87;7.13;;;;;;;42.66;31.41;97147.53;5004197;28;20485;-74
2023/07/03 09:14:33;;;;;;;32.45;8.65;;;;;;;41.56;31.85;97133.28;5018846;28;20067;-74
2023/07/03 09:16:59;;;;;;;9.35;7.15;;;;;;;41.46;32.67;97145.50;5052987;28;20029;-74
2023/07/03 09:19:27;;;;;;;9.15;7.72;;;;;;;40.36;34.19;97150.38;5034661;28;20026;-74
2023/07/03 09:21:55;;;;;;;12.80;7.72;;;;;;;39.74;34.24;97151.13;5025327;28;20021;-73
2023/07/03 09:24:36;;;;;;;20.63;10.93;;;;;;;40.19;34.92;97148.00;5035018;28;20028;-74
2023/07/03 09:27:23;;;;;;;13.70;8.18;;;;;;;41.00;32.29;97144.41;5035016;28;20485;-74
2023/07/03 09:29:49;;;;;;;11.68;7.47;;;;;;;41.43;32.30;97139.66;4996772;28;20405;-74
2023/07/03 09:32:26;;;;;;;13.77;6.70;;;;;;;42.15;31.12;97141.91;5015345;28;20040;-75
2023/07/03 09:35:07;;;;;;;9.15;6.90;;;;;;;41.50;31.43;97137.31;5048592;28;20045;-74
2023/07/03 09:37:36;;;;;;;7.68;5.97;;;;;;;42.21;30.47;97136.25;5053856;28;20060;-75
2023/07/03 09:40:08;;;;;;;8.15;6.70;;;;;;;43.01;29.72;97137.56;5034822;28;20033;-75
2023/07/03 09:42:34;;;;;;;12.98;8.73;;;;;;;43.73;29.47;97146.16;5019016;28;20408;-75
2023/07/03 09:44:59;;;;;;;17.02;9.68;;;;;;;44.17;28.85;97143.44;5034632;28;20036;-76
2023/07/03 09:47:28;;;;;;;16.63;7.13;;;;;;;40.62;32.95;97136.94;5018090;28;20052;-74
2023/07/03 09:49:54;;;;;;;9.98;8.48;;;;;;;42.45;31.41;97142.56;5034969;28;20071;-73
2023/07/03 09:52:21;;;;;;;7.60;6.65;;;;;;;43.66;29.75;97143.75;5034337;28;20025;-73
2023/07/03 09:54:49;;;;;;;12.88;7.00;;;;;;;43.07;30.92;97141.13;5052406;28;20025;-74
2023/07/03 09:57:28;;;;;;;13.00;7.60;;;;;;;42.54;31.25;97147.19;5017907;28;20444;-74
2023/07/03 09:59:54;;;;;;;11.75;7.80;;;;;;;40.92;33.00;97133.78;5034383;28;20021;-74
2023/07/03 10:02:22;;;;;;;9.30;6.60;;;;;;;41.48;32.82;97142.38;5034054;28;21991;-74
2023/07/03 10:04:47;;;;;;;12.07;7.05;;;;;;;42.20;31.07;97137.38;5034174;28;20572;-74
2023/07/03 10:07:16;;;;;;;54.60;39.47;;;;;;;40.90;32.86;97142.53;5051936;28;20060;-73
2023/07/03 10:09:43;;;;;;;11.85;7.00;;;;;;;39.36;35.36;97145.19;5034071;28;20075;-74
2023/07/03 10:12:34;;;;;;;11.23;6.45;;;;;;;36.87;41.70;97161.28;5033969;28;20067;-73
2023/07/03 10:15:23;;;;;;;11.85;6.88;;;;;;;35.49;49.93;97177.13;5034321;28;20485;-74
2023/07/03 10:17:56;;;;;;;9.35;6.75;;;;;;;34.26;61.22;97188.75;5034167;28;20368;-73
2023/07/03 10:20:27;;;;;;;13.52;6.57;;;;;;;33.61;68.48;97197.59;5034224;28;20108;-73
2023/07/03 10:22:53;;;;;;;21.13;12.32;;;;;;;32.96;77.97;97199.84;5034152;28;20025;-72
2023/07/03 10:25:28;;;;;;;13.93;7.03;;;;;;;32.21;84.30;97204.44;5034101;28;20519;-73
2023/07/03 10:27:57;;;;;;;11.48;7.07;;;;;;;31.85;82.79;97202.69;5017648;28;20021;-72
2023/07/03 10:30:23;;;;;;;14.25;7.82;;;;;;;31.66;84.44;97210.22;5034035;28;20036;-73
2023/07/03 10:32:51;;;;;;;17.83;7.10;;;;;;;31.29;86.85;97207.75;5017052;28;20021;-74
2023/07/03 10:35:30;;;;;;;14.75;7.18;;;;;;;31.48;84.94;97196.41;5017322;28;20056;-73
2023/07/03 10:38:11;;;;;;;15.23;6.70;;;;;;;32.71;71.20;97185.41;5034448;28;20037;-73
2023/07/03 10:40:49;;;;;;;15.35;7.95;;;;;;;33.58;62.11;97175.03;5051374;28;20056;-74
2023/07/03 10:43:16;;;;;;;22.70;8.23;;;;;;;33.43;60.00;97163.63;5016732;28;20033;-73
2023/07/03 10:45:42;;;;;;;10.73;6.40;;;;;;;33.53;57.71;97167.44;5033190;28;20029;-74
2023/07/03 10:48:14;;;;;;;6.55;5.65;;;;;;;33.47;53.37;97160.09;5033385;28;20063;-74
2023/07/03 10:50:48;;;;;;;6.63;5.15;;;;;;;33.97;52.76;97157.41;5033270;28;20032;-73
2023/07/03 10:53:56;;;;;;;7.88;5.50;;;;;;;34.05;53.43;97164.50;5051286;28;20033;-73
2023/07/03 10:56:38;;;;;;;11.40;5.57;;;;;;;35.12;50.58;97165.00;4938466;28;20041;-74
2023/07/03 10:59:20;;;;;;;7.38;5.13;;;;;;;36.20;46.66;97148.03;5030343;28;20452;-74
2023/07/03 11:02:02;;;;;;;;;;;;;;;34.94;48.80;97156.97;5033774;28;20542;-74
2023/07/03 11:04:42;;;;;;;13.55;4.97;;;;;;;33.76;51.02;97139.59;5051114;28;19916;-74
2023/07/03 11:07:26;;;;;;;8.52;4.75;;;;;;;32.92;55.86;97153.44;5033442;28;20044;-73
2023/07/03 11:09:58;;;;;;;10.30;4.85;;;;;;;32.94;57.26;97156.81;5050524;28;20025;-73
2023/07/03 11:12:43;;;;;;;10.40;5.95;;;;;;;32.71;64.16;97168.78;5016373;28;20499;-73
2023/07/03 11:15:30;;;;;;;10.35;5.38;;;;;;;32.88;64.25;97171.66;5016631;28;20029;-73
2023/07/03 11:18:13;;;;;;;9.25;5.57;;;;;;;33.81;61.37;97166.56;5032211;28;20024;-74
2023/07/03 11:20:44;;;;;;;6.90;4.75;;;;;;;36.68;49.99;97151.69;5033075;28;20056;-74
2023/07/03 11:23:25;;;;;;;9.32;4.43;;;;;;;39.21;41.83;97149.97;5016508;28;20095;-74
2023/07/03 11:26:24;;;;;;;5.35;4.53;;;;;;;40.35;38.75;97140.28;5016505;28;20476;-75